^^
Saratoga-Weather Station Historical Data
Daily Summary for May 17, 2022 Units:  Both    English   Metric
Daily Weekly Monthly Yearly Custom
  High: Low: Average:
Temperature: 81.7 °F /  27.6 °C 54.1 °F /  12.3 °C 67.3 °F /  19.6 °C
Dew Point: 62.2 °F /  16.8 °C 52.7 °F /  11.5 °C 56.8 °F /  13.8 °C
Humidity: 96% 42% 72%
Wind Speed: 8.1mph /  13km/h - 0.7mph /  1.2km/h
Wind Gust: 12mph /  19.3km/h - -
Wind- - ESE
Pressure: 30.2 in /  1021.0 hPa 30 in /  1017.3 hPa -
Precipitation: 0 in /  0.0 mm    
Historical Graphs
 
 
Tabular Data for May 17, 2022
Time Temperature Dew Point Pressure Wind Wind Speed Wind Gust Humidity Rainfall Rate (Hourly) solar
00:02 59.4 °F /  15.2 °C 56.5 °F /  13.6 °C 30.1in /  1019.6hPa Calm     90% 0in /  0.0mm 0 W/m2
00:07 59.2 °F /  15.1 °C 56.3 °F /  13.5 °C 30.1in /  1019.6hPa Calm     90% 0in /  0.0mm 0 W/m2
00:12 59 °F /  15 °C 56.1 °F /  13.4 °C 30.1in /  1019.6hPa Calm     90% 0in /  0.0mm 0 W/m2
00:17 58.8 °F /  14.9 °C 55.9 °F /  13.3 °C 30.1in /  1019.6hPa Calm     90% 0in /  0.0mm 0 W/m2
00:22 58.8 °F /  14.9 °C 55.9 °F /  13.3 °C 30.1in /  1019.6hPa Calm     90% 0in /  0.0mm 0 W/m2
00:27 58.6 °F /  14.8 °C 55.9 °F /  13.3 °C 30.1in /  1019.6hPa Calm     91% 0in /  0.0mm 0 W/m2
00:32 58.6 °F /  14.8 °C 55.9 °F /  13.3 °C 30.1in /  1019.6hPa West 0.9mph /  1.4km/h 1mph /  1.6km/h 91% 0in /  0.0mm 0 W/m2
00:37 58.6 °F /  14.8 °C 55.9 °F /  13.3 °C 30.1in /  1019.6hPa Calm     91% 0in /  0.0mm 0 W/m2
00:42 58.5 °F /  14.7 °C 55.8 °F /  13.2 °C 30.1in /  1019.6hPa Calm     91% 0in /  0.0mm 0 W/m2
00:47 58.5 °F /  14.7 °C 55.8 °F /  13.2 °C 30.1in /  1019.6hPa Calm     91% 0in /  0.0mm 0 W/m2
00:52 58.5 °F /  14.7 °C 55.8 °F /  13.2 °C 30.1in /  1019.6hPa Calm     91% 0in /  0.0mm 0 W/m2
00:57 58.3 °F /  14.6 °C 55.6 °F /  13.1 °C 30.1in /  1019.6hPa West 0.9mph /  1.4km/h 2mph /  3.2km/h 91% 0in /  0.0mm 0 W/m2
01:02 58.1 °F /  14.5 °C 55.8 °F /  13.2 °C 30.1in /  1019.6hPa Calm   1mph /  1.6km/h 92% 0in /  0.0mm 0 W/m2
01:07 57.9 °F /  14.4 °C 55.2 °F /  12.9 °C 30.1in /  1019.6hPa Calm   1mph /  1.6km/h 91% 0in /  0.0mm 0 W/m2
01:12 57.7 °F /  14.3 °C 55.2 °F /  12.9 °C 30.1in /  1019.6hPa Calm     91% 0in /  0.0mm 0 W/m2
01:17 57.6 °F /  14.2 °C 55.2 °F /  12.9 °C 30.1in /  1020.0hPa Calm     92% 0in /  0.0mm 0 W/m2
01:22 57.4 °F /  14.1 °C 54.9 °F /  12.7 °C 30.1in /  1020.0hPa Calm     91% 0in /  0.0mm 0 W/m2
01:27 57.4 °F /  14.1 °C 55 °F /  12.8 °C 30.1in /  1019.6hPa Calm     92% 0in /  0.0mm 0 W/m2
01:32 57.2 °F /  14 °C 54.9 °F /  12.7 °C 30.1in /  1019.6hPa Calm     92% 0in /  0.0mm 0 W/m2
01:37 57 °F /  13.9 °C 54.7 °F /  12.6 °C 30.1in /  1020.0hPa Calm     92% 0in /  0.0mm 0 W/m2
01:42 57 °F /  13.9 °C 54.7 °F /  12.6 °C 30.1in /  1020.0hPa Calm     92% 0in /  0.0mm 0 W/m2
01:47 56.8 °F /  13.8 °C 54.5 °F /  12.5 °C 30.1in /  1020.0hPa Calm     92% 0in /  0.0mm 0 W/m2
01:52 56.7 °F /  13.7 °C 54.3 °F /  12.4 °C 30.1in /  1020.0hPa Calm     92% 0in /  0.0mm 0 W/m2
01:57 56.7 °F /  13.7 °C 54.3 °F /  12.4 °C 30.1in /  1020.0hPa Calm     92% 0in /  0.0mm 0 W/m2
02:02 56.7 °F /  13.7 °C 54.7 °F /  12.6 °C 30.1in /  1020.0hPa Calm     93% 0in /  0.0mm 0 W/m2
02:07 56.8 °F /  13.8 °C 55.2 °F /  12.9 °C 30.1in /  1019.6hPa Calm     94% 0in /  0.0mm 0 W/m2
02:12 56.8 °F /  13.8 °C 55.2 °F /  12.9 °C 30.1in /  1020.0hPa Calm     94% 0in /  0.0mm 0 W/m2
02:17 56.8 °F /  13.8 °C 54.9 °F /  12.7 °C 30.1in /  1020.0hPa Calm     93% 0in /  0.0mm 0 W/m2
02:22 56.7 °F /  13.7 °C 54.7 °F /  12.6 °C 30.1in /  1020.0hPa Calm     93% 0in /  0.0mm 0 W/m2
02:27 56.7 °F /  13.7 °C 54.7 °F /  12.6 °C 30.1in /  1020.0hPa Calm     93% 0in /  0.0mm 0 W/m2
02:32 56.5 °F /  13.6 °C 54.5 °F /  12.5 °C 30.1in /  1019.6hPa Calm     93% 0in /  0.0mm 0 W/m2
02:37 56.5 °F /  13.6 °C 54.5 °F /  12.5 °C 30.1in /  1019.6hPa Calm     93% 0in /  0.0mm 0 W/m2
02:42 56.3 °F /  13.5 °C 54.3 °F /  12.4 °C 30.1in /  1019.6hPa Calm     93% 0in /  0.0mm 0 W/m2
02:47 56.1 °F /  13.4 °C 54.5 °F /  12.5 °C 30.1in /  1019.6hPa Calm     94% 0in /  0.0mm 0 W/m2
02:57 56.1 °F /  13.4 °C 54.5 °F /  12.5 °C 30.1in /  1019.6hPa Calm     94% 0in /  0.0mm 0 W/m2
03:02 56.1 °F /  13.4 °C 54.5 °F /  12.5 °C 30.1in /  1019.6hPa Calm     94% 0in /  0.0mm 0 W/m2
03:07 55.9 °F /  13.3 °C 54.3 °F /  12.4 °C 30.1in /  1019.6hPa Calm     94% 0in /  0.0mm 0 W/m2
03:12 55.8 °F /  13.2 °C 53.8 °F /  12.1 °C 30.1in /  1019.6hPa Calm     93% 0in /  0.0mm 0 W/m2
03:17 55.8 °F /  13.2 °C 54.1 °F /  12.3 °C 30.1in /  1019.6hPa West 2mph /  3.2km/h 2mph /  3.2km/h 94% 0in /  0.0mm 0 W/m2
03:22 55.8 °F /  13.2 °C 54.1 °F /  12.3 °C 30.1in /  1019.6hPa Calm     94% 0in /  0.0mm 0 W/m2
03:27 55.8 °F /  13.2 °C 54.1 °F /  12.3 °C 30.1in /  1019.6hPa Calm     94% 0in /  0.0mm 0 W/m2
03:32 55.6 °F /  13.1 °C 54 °F /  12.2 °C 30.1in /  1019.6hPa Calm     94% 0in /  0.0mm 0 W/m2
03:37 55.6 °F /  13.1 °C 54 °F /  12.2 °C 30.1in /  1019.6hPa Calm   1mph /  1.6km/h 94% 0in /  0.0mm 0 W/m2
03:42 55.4 °F /  13 °C 53.8 °F /  12.1 °C 30.1in /  1019.6hPa Calm     94% 0in /  0.0mm 0 W/m2
03:47 55.2 °F /  12.9 °C 53.6 °F /  12 °C 30.1in /  1019.6hPa Calm     94% 0in /  0.0mm 0 W/m2
03:52 55.2 °F /  12.9 °C 53.6 °F /  12 °C 30.1in /  1019.6hPa Calm     94% 0in /  0.0mm 0 W/m2
03:57 55.2 °F /  12.9 °C 53.6 °F /  12 °C 30.1in /  1019.6hPa Calm     94% 0in /  0.0mm 0 W/m2
04:02 55.2 °F /  12.9 °C 53.6 °F /  12 °C 30.1in /  1019.6hPa Calm     94% 0in /  0.0mm 0 W/m2
04:07 55 °F /  12.8 °C 53.4 °F /  11.9 °C 30.1in /  1019.6hPa Calm     94% 0in /  0.0mm 0 W/m2
04:12 55 °F /  12.8 °C 53.4 °F /  11.9 °C 30.1in /  1019.6hPa Calm     94% 0in /  0.0mm 0 W/m2
04:18 54.9 °F /  12.7 °C 53.2 °F /  11.8 °C 30.1in /  1019.6hPa Calm     94% 0in /  0.0mm 0 W/m2
04:23 55 °F /  12.8 °C 53.6 °F /  12 °C 30.1in /  1019.3hPa Calm     95% 0in /  0.0mm 0 W/m2
04:28 55 °F /  12.8 °C 53.6 °F /  12 °C 30.1in /  1019.6hPa Calm     95% 0in /  0.0mm 0 W/m2
04:33 55 °F /  12.8 °C 53.6 °F /  12 °C 30.1in /  1019.3hPa Calm     95% 0in /  0.0mm 0 W/m2
04:38 55 °F /  12.8 °C 53.6 °F /  12 °C 30.1in /  1019.6hPa Calm     95% 0in /  0.0mm 0 W/m2
04:43 55 °F /  12.8 °C 53.6 °F /  12 °C 30.1in /  1019.6hPa Calm     95% 0in /  0.0mm 0 W/m2
04:48 54.9 °F /  12.7 °C 53.4 °F /  11.9 °C 30.1in /  1019.6hPa Calm     95% 0in /  0.0mm 0 W/m2
04:53 54.9 °F /  12.7 °C 53.4 °F /  11.9 °C 30.1in /  1019.6hPa Calm     95% 0in /  0.0mm 0 W/m2
04:58 54.7 °F /  12.6 °C 53.2 °F /  11.8 °C 30.1in /  1019.6hPa Calm     95% 0in /  0.0mm 0 W/m2
05:03 54.7 °F /  12.6 °C 53.2 °F /  11.8 °C 30.1in /  1019.6hPa Calm     95% 0in /  0.0mm 0 W/m2
05:08 54.7 °F /  12.6 °C 53.2 °F /  11.8 °C 30.1in /  1019.6hPa Calm     95% 0in /  0.0mm 0 W/m2
05:13 54.7 °F /  12.6 °C 53.2 °F /  11.8 °C 30.1in /  1019.6hPa Calm     95% 0in /  0.0mm 0 W/m2
05:18 54.5 °F /  12.5 °C 53.1 °F /  11.7 °C 30.1in /  1019.6hPa Calm     95% 0in /  0.0mm 0 W/m2
05:23 54.3 °F /  12.4 °C 52.9 °F /  11.6 °C 30.1in /  1019.6hPa Calm     95% 0in /  0.0mm 0 W/m2
05:28 54.3 °F /  12.4 °C 52.9 °F /  11.6 °C 30.1in /  1019.6hPa Calm     95% 0in /  0.0mm 0 W/m2
05:33 54.3 °F /  12.4 °C 52.9 °F /  11.6 °C 30.1in /  1020.0hPa Calm     95% 0in /  0.0mm 0 W/m2
05:38 54.1 °F /  12.3 °C 52.7 °F /  11.5 °C 30.1in /  1020.0hPa Calm     95% 0in /  0.0mm 0 W/m2
05:43 54.3 °F /  12.4 °C 52.9 °F /  11.6 °C 30.1in /  1020.0hPa Calm     95% 0in /  0.0mm 0 W/m2
05:48 54.3 °F /  12.4 °C 52.9 °F /  11.6 °C 30.1in /  1020.0hPa Calm     95% 0in /  0.0mm 0 W/m2
05:53 54.3 °F /  12.4 °C 52.9 °F /  11.6 °C 30.1in /  1020.0hPa Calm     95% 0in /  0.0mm 5 W/m2
05:58 54.3 °F /  12.4 °C 52.9 °F /  11.6 °C 30.1in /  1020.0hPa Calm     95% 0in /  0.0mm 7 W/m2
06:03 54.1 °F /  12.3 °C 52.7 °F /  11.5 °C 30.1in /  1020.0hPa Calm     95% 0in /  0.0mm 11 W/m2
06:08 54.1 °F /  12.3 °C 52.7 °F /  11.5 °C 30.1in /  1020.0hPa Calm     95% 0in /  0.0mm 14 W/m2
06:13 54.1 °F /  12.3 °C 52.7 °F /  11.5 °C 30.1in /  1020.0hPa Calm     95% 0in /  0.0mm 18 W/m2
06:18 54.1 °F /  12.3 °C 52.7 °F /  11.5 °C 30.1in /  1020.0hPa Calm     95% 0in /  0.0mm 19 W/m2
06:23 54.3 °F /  12.4 °C 53.2 °F /  11.8 °C 30.1in /  1020.0hPa Calm     96% 0in /  0.0mm 21 W/m2
06:28 54.5 °F /  12.5 °C 53.4 °F /  11.9 °C 30.1in /  1020.0hPa Calm     96% 0in /  0.0mm 23 W/m2
06:33 54.9 °F /  12.7 °C 53.8 °F /  12.1 °C 30.1in /  1020.0hPa North 0.9mph /  1.4km/h 2mph /  3.2km/h 96% 0in /  0.0mm 25 W/m2
06:38 54.9 °F /  12.7 °C 53.8 °F /  12.1 °C 30.1in /  1020.0hPa NE 0.9mph /  1.4km/h 2mph /  3.2km/h 96% 0in /  0.0mm 28 W/m2
06:43 54.7 °F /  12.6 °C 53.6 °F /  12 °C 30.1in /  1020.3hPa Calm     96% 0in /  0.0mm 30 W/m2
06:48 54.7 °F /  12.6 °C 53.6 °F /  12 °C 30.1in /  1020.3hPa Calm     96% 0in /  0.0mm 33 W/m2
06:53 54.7 °F /  12.6 °C 53.6 °F /  12 °C 30.1in /  1020.3hPa Calm     96% 0in /  0.0mm 35 W/m2
06:58 54.7 °F /  12.6 °C 53.6 °F /  12 °C 30.1in /  1020.3hPa Calm     96% 0in /  0.0mm 35 W/m2
07:03 54.9 °F /  12.7 °C 53.8 °F /  12.1 °C 30.1in /  1020.3hPa Calm     96% 0in /  0.0mm 35 W/m2
07:08 54.9 °F /  12.7 °C 53.8 °F /  12.1 °C 30.1in /  1020.3hPa Calm     96% 0in /  0.0mm 39 W/m2
07:13 55 °F /  12.8 °C 54 °F /  12.2 °C 30.1in /  1020.3hPa Calm     96% 0in /  0.0mm 46 W/m2
07:18 55 °F /  12.8 °C 54 °F /  12.2 °C 30.1in /  1020.3hPa Calm     96% 0in /  0.0mm 56 W/m2
07:23 55.2 °F /  12.9 °C 54.1 °F /  12.3 °C 30.1in /  1020.3hPa Calm     96% 0in /  0.0mm 58 W/m2
07:28 55.2 °F /  12.9 °C 54.1 °F /  12.3 °C 30.1in /  1020.3hPa Calm     96% 0in /  0.0mm 54 W/m2
07:33 55.4 °F /  13 °C 54.3 °F /  12.4 °C 30.1in /  1020.3hPa Calm     96% 0in /  0.0mm 58 W/m2
07:38 55.6 °F /  13.1 °C 54.5 °F /  12.5 °C 30.1in /  1020.3hPa Calm     96% 0in /  0.0mm 63 W/m2
07:43 55.8 °F /  13.2 °C 54.7 °F /  12.6 °C 30.1in /  1020.7hPa Calm     96% 0in /  0.0mm 79 W/m2
07:48 55.8 °F /  13.2 °C 54.7 °F /  12.6 °C 30.1in /  1020.3hPa Calm     96% 0in /  0.0mm 97 W/m2
07:53 55.9 °F /  13.3 °C 54.9 °F /  12.7 °C 30.1in /  1020.7hPa Calm     96% 0in /  0.0mm 105 W/m2
07:58 56.1 °F /  13.4 °C 55 °F /  12.8 °C 30.1in /  1020.7hPa Calm     96% 0in /  0.0mm 113 W/m2
08:03 56.3 °F /  13.5 °C 55.2 °F /  12.9 °C 30.1in /  1020.7hPa Calm     96% 0in /  0.0mm 120 W/m2
08:08 56.5 °F /  13.6 °C 55 °F /  12.8 °C 30.1in /  1020.7hPa Calm     95% 0in /  0.0mm 120 W/m2
08:13 56.7 °F /  13.7 °C 55.6 °F /  13.1 °C 30.1in /  1020.7hPa Calm     96% 0in /  0.0mm 118 W/m2
08:18 56.8 °F /  13.8 °C 55.4 °F /  13 °C 30.1in /  1020.7hPa Calm     95% 0in /  0.0mm 125 W/m2
08:23 56.8 °F /  13.8 °C 55.4 °F /  13 °C 30.1in /  1020.7hPa Calm     95% 0in /  0.0mm 135 W/m2
08:28 57.2 °F /  14 °C 55.8 °F /  13.2 °C 30.1in /  1020.7hPa NE 0.9mph /  1.4km/h 2mph /  3.2km/h 95% 0in /  0.0mm 148 W/m2
08:33 57.4 °F /  14.1 °C 55.6 °F /  13.1 °C 30.1in /  1020.7hPa Calm   2mph /  3.2km/h 94% 0in /  0.0mm 155 W/m2
08:38 57.7 °F /  14.3 °C 55.9 °F /  13.3 °C 30.1in /  1020.7hPa Calm     94% 0in /  0.0mm 165 W/m2
08:43 58.1 °F /  14.5 °C 56.3 °F /  13.5 °C 30.1in /  1020.7hPa Calm   2mph /  3.2km/h 94% 0in /  0.0mm 174 W/m2
08:48 58.5 °F /  14.7 °C 56.5 °F /  13.6 °C 30.1in /  1020.7hPa NE 0.9mph /  1.4km/h 2mph /  3.2km/h 93% 0in /  0.0mm 185 W/m2
08:53 59 °F /  15 °C 57 °F /  13.9 °C 30.1in /  1020.7hPa Calm   2mph /  3.2km/h 93% 0in /  0.0mm 199 W/m2
08:58 59.4 °F /  15.2 °C 57 °F /  13.9 °C 30.1in /  1020.7hPa Calm   2mph /  3.2km/h 92% 0in /  0.0mm 209 W/m2
09:03 59.7 °F /  15.4 °C 57 °F /  13.9 °C 30.1in /  1020.7hPa Calm     91% 0in /  0.0mm 213 W/m2
09:08 60.3 °F /  15.7 °C 57.6 °F /  14.2 °C 30.1in /  1020.7hPa Calm   1mph /  1.6km/h 91% 0in /  0.0mm 211 W/m2
09:13 60.6 °F /  15.9 °C 57.7 °F /  14.3 °C 30.1in /  1020.7hPa North 0.9mph /  1.4km/h 1mph /  1.6km/h 90% 0in /  0.0mm 211 W/m2
09:18 61.3 °F /  16.3 °C 58.5 °F /  14.7 °C 30.1in /  1020.7hPa ESE 2mph /  3.2km/h 2mph /  3.2km/h 90% 0in /  0.0mm 197 W/m2
09:23 61.9 °F /  16.6 °C 58.3 °F /  14.6 °C 30.1in /  1020.7hPa East 2mph /  3.2km/h 3mph /  4.8km/h 88% 0in /  0.0mm 190 W/m2
09:28 62.2 °F /  16.8 °C 58.3 °F /  14.6 °C 30.1in /  1020.7hPa Calm   3mph /  4.8km/h 87% 0in /  0.0mm 195 W/m2
09:33 62.6 °F /  17 °C 58.6 °F /  14.8 °C 30.1in /  1020.7hPa Calm   1mph /  1.6km/h 87% 0in /  0.0mm 202 W/m2
09:38 63.1 °F /  17.3 °C 59.2 °F /  15.1 °C 30.1in /  1020.7hPa Calm   1mph /  1.6km/h 87% 0in /  0.0mm 199 W/m2
09:43 64 °F /  17.8 °C 59.4 °F /  15.2 °C 30.2in /  1021.0hPa East 2.9mph /  4.7km/h 4mph /  6.4km/h 85% 0in /  0.0mm 192 W/m2
09:48 64.8 °F /  18.2 °C 59.5 °F /  15.3 °C 30.2in /  1021.0hPa ENE 0.9mph /  1.4km/h 1mph /  1.6km/h 83% 0in /  0.0mm 190 W/m2
09:53 65.1 °F /  18.4 °C 59.9 °F /  15.5 °C 30.2in /  1021.0hPa ENE 2.9mph /  4.7km/h 5mph /  8km/h 83% 0in /  0.0mm 186 W/m2
09:58 65.5 °F /  18.6 °C 59.9 °F /  15.5 °C 30.1in /  1020.7hPa East 2mph /  3.2km/h 4mph /  6.4km/h 82% 0in /  0.0mm 241 W/m2
10:03 65.7 °F /  18.7 °C 60.1 °F /  15.6 °C 30.1in /  1020.7hPa East 0.9mph /  1.4km/h 5mph /  8km/h 82% 0in /  0.0mm 415 W/m2
10:08 66 °F /  18.9 °C 60.1 °F /  15.6 °C 30.1in /  1020.7hPa Calm   3mph /  4.8km/h 81% 0in /  0.0mm 401 W/m2
10:13 66.6 °F /  19.2 °C 60.6 °F /  15.9 °C 30.1in /  1020.7hPa ENE 2.9mph /  4.7km/h 3mph /  4.8km/h 81% 0in /  0.0mm 424 W/m2
10:18 66.9 °F /  19.4 °C 60.3 °F /  15.7 °C 30.1in /  1020.7hPa East 0.9mph /  1.4km/h 3mph /  4.8km/h 79% 0in /  0.0mm 420 W/m2
10:23 67.3 °F /  19.6 °C 61 °F /  16.1 °C 30.1in /  1020.7hPa ENE 2mph /  3.2km/h 4mph /  6.4km/h 80% 0in /  0.0mm 503 W/m2
10:28 67.5 °F /  19.7 °C 60.8 °F /  16 °C 30.1in /  1020.7hPa SSE 0.9mph /  1.4km/h 3mph /  4.8km/h 79% 0in /  0.0mm 506 W/m2
10:33 67.6 °F /  19.8 °C 60.3 °F /  15.7 °C 30.1in /  1020.7hPa ENE 2.9mph /  4.7km/h 5mph /  8km/h 77% 0in /  0.0mm 584 W/m2
10:38 67.8 °F /  19.9 °C 60.3 °F /  15.7 °C 30.1in /  1020.7hPa East 0.9mph /  1.4km/h 6mph /  9.7km/h 77% 0in /  0.0mm 617 W/m2
10:43 68.4 °F /  20.2 °C 60.8 °F /  16 °C 30.1in /  1020.7hPa NE 0.9mph /  1.4km/h 6mph /  9.7km/h 77% 0in /  0.0mm 533 W/m2
10:48 68.5 °F /  20.3 °C 60.6 °F /  15.9 °C 30.1in /  1020.7hPa ESE 0.9mph /  1.4km/h 3mph /  4.8km/h 76% 0in /  0.0mm 598 W/m2
10:53 69.1 °F /  20.6 °C 61.2 °F /  16.2 °C 30.1in /  1020.7hPa SE 0.9mph /  1.4km/h 6mph /  9.7km/h 76% 0in /  0.0mm 585 W/m2
10:58 69.6 °F /  20.9 °C 61.3 °F /  16.3 °C 30.1in /  1020.7hPa East 2mph /  3.2km/h 7mph /  11.3km/h 75% 0in /  0.0mm 645 W/m2
11:03 70 °F /  21.1 °C 61.7 °F /  16.5 °C 30.1in /  1020.7hPa East 2mph /  3.2km/h 3mph /  4.8km/h 75% 0in /  0.0mm 661 W/m2
11:08 70.3 °F /  21.3 °C 61.7 °F /  16.5 °C 30.1in /  1020.7hPa NE 2.9mph /  4.7km/h 5mph /  8km/h 74% 0in /  0.0mm 686 W/m2
11:13 70.5 °F /  21.4 °C 61.5 °F /  16.4 °C 30.1in /  1020.7hPa SE 0.9mph /  1.4km/h 5mph /  8km/h 73% 0in /  0.0mm 698 W/m2
11:18 70.7 °F /  21.5 °C 61.2 °F /  16.2 °C 30.1in /  1020.7hPa East 2.9mph /  4.7km/h 3mph /  4.8km/h 72% 0in /  0.0mm 724 W/m2
11:23 70.9 °F /  21.6 °C 61.3 °F /  16.3 °C 30.1in /  1020.7hPa East 2mph /  3.2km/h 4mph /  6.4km/h 72% 0in /  0.0mm 737 W/m2
11:28 71.4 °F /  21.9 °C 61.9 °F /  16.6 °C 30.1in /  1020.7hPa ENE 4.9mph /  7.9km/h 8mph /  12.9km/h 72% 0in /  0.0mm 745 W/m2
11:33 71.8 °F /  22.1 °C 61.5 °F /  16.4 °C 30.1in /  1020.7hPa NE 2mph /  3.2km/h 4mph /  6.4km/h 70% 0in /  0.0mm 733 W/m2
11:38 71.8 °F /  22.1 °C 61.9 °F /  16.6 °C 30.1in /  1020.7hPa ENE 2mph /  3.2km/h 2mph /  3.2km/h 71% 0in /  0.0mm 758 W/m2
11:43 72.1 °F /  22.3 °C 61.9 °F /  16.6 °C 30.1in /  1020.7hPa Calm   5mph /  8km/h 70% 0in /  0.0mm 737 W/m2
11:48 72.5 °F /  22.5 °C 62.2 °F /  16.8 °C 30.1in /  1020.3hPa ENE 2.9mph /  4.7km/h 3mph /  4.8km/h 70% 0in /  0.0mm 745 W/m2
11:53 72.7 °F /  22.6 °C 61.5 °F /  16.4 °C 30.1in /  1020.3hPa NE 0.9mph /  1.4km/h 7mph /  11.3km/h 68% 0in /  0.0mm 779 W/m2
11:58 73 °F /  22.8 °C 61.9 °F /  16.6 °C 30.1in /  1020.3hPa SE 4mph /  6.4km/h 5mph /  8km/h 68% 0in /  0.0mm 766 W/m2
12:03 73.2 °F /  22.9 °C 61.5 °F /  16.4 °C 30.1in /  1020.3hPa ENE 0.9mph /  1.4km/h 4mph /  6.4km/h 67% 0in /  0.0mm 742 W/m2
12:08 73.8 °F /  23.2 °C 61.3 °F /  16.3 °C 30.1in /  1020.3hPa ESE 0.9mph /  1.4km/h 5mph /  8km/h 65% 0in /  0.0mm 751 W/m2
12:13 73.9 °F /  23.3 °C 61.3 °F /  16.3 °C 30.1in /  1020.3hPa ENE 0.9mph /  1.4km/h 6mph /  9.7km/h 65% 0in /  0.0mm 793 W/m2
12:18 74.3 °F /  23.5 °C 61.3 °F /  16.3 °C 30.1in /  1020.0hPa ESE 2mph /  3.2km/h 7mph /  11.3km/h 64% 0in /  0.0mm 791 W/m2
12:23 74.5 °F /  23.6 °C 60.1 °F /  15.6 °C 30.1in /  1020.0hPa ESE 2.9mph /  4.7km/h 6mph /  9.7km/h 61% 0in /  0.0mm 802 W/m2
12:28 74.7 °F /  23.7 °C 59.9 °F /  15.5 °C 30.1in /  1020.0hPa ENE 0.9mph /  1.4km/h 7mph /  11.3km/h 60% 0in /  0.0mm 809 W/m2
12:33 74.7 °F /  23.7 °C 59.9 °F /  15.5 °C 30.1in /  1019.6hPa NW 2.9mph /  4.7km/h 4mph /  6.4km/h 60% 0in /  0.0mm 824 W/m2
12:38 74.7 °F /  23.7 °C 59.9 °F /  15.5 °C 30.1in /  1019.6hPa NE 2.9mph /  4.7km/h 7mph /  11.3km/h 60% 0in /  0.0mm 819 W/m2
12:43 74.8 °F /  23.8 °C 60.1 °F /  15.6 °C 30.1in /  1019.6hPa ESE 0.9mph /  1.4km/h 4mph /  6.4km/h 60% 0in /  0.0mm 817 W/m2
12:48 75 °F /  23.9 °C 56.1 °F /  13.4 °C 30.1in /  1019.6hPa East 2.9mph /  4.7km/h 3mph /  4.8km/h 52% 0in /  0.0mm 814 W/m2
12:53 75.6 °F /  24.2 °C 58.8 °F /  14.9 °C 30.1in /  1019.6hPa ENE 4mph /  6.4km/h 7mph /  11.3km/h 56% 0in /  0.0mm 830 W/m2
12:58 75.9 °F /  24.4 °C 59.2 °F /  15.1 °C 30.1in /  1019.6hPa NE 4mph /  6.4km/h 4mph /  6.4km/h 56% 0in /  0.0mm 842 W/m2
13:03 75.9 °F /  24.4 °C 60.1 °F /  15.6 °C 30.1in /  1019.6hPa ENE 0.9mph /  1.4km/h 3mph /  4.8km/h 58% 0in /  0.0mm 842 W/m2
13:08 76.6 °F /  24.8 °C 59.2 °F /  15.1 °C 30.1in /  1019.6hPa ESE 2.9mph /  4.7km/h 3mph /  4.8km/h 55% 0in /  0.0mm 828 W/m2
13:13 76.6 °F /  24.8 °C 58.3 °F /  14.6 °C 30.1in /  1019.3hPa ENE 2.9mph /  4.7km/h 5mph /  8km/h 53% 0in /  0.0mm 860 W/m2
13:18 76.5 °F /  24.7 °C 57.6 °F /  14.2 °C 30.1in /  1019.3hPa NNE 2mph /  3.2km/h 6mph /  9.7km/h 52% 0in /  0.0mm 861 W/m2
13:23 76.6 °F /  24.8 °C 59.2 °F /  15.1 °C 30.1in /  1019.3hPa Calm   2mph /  3.2km/h 55% 0in /  0.0mm 853 W/m2
13:28 76.6 °F /  24.8 °C 59.2 °F /  15.1 °C 30.1in /  1019.3hPa East 0.9mph /  1.4km/h 7mph /  11.3km/h 55% 0in /  0.0mm 863 W/m2
13:33 76.6 °F /  24.8 °C 59.2 °F /  15.1 °C 30.1in /  1019.3hPa East 0.9mph /  1.4km/h 5mph /  8km/h 55% 0in /  0.0mm 860 W/m2
13:38 76.8 °F /  24.9 °C 57.4 °F /  14.1 °C 30.1in /  1019.3hPa ESE 8.1mph /  13km/h 9mph /  14.5km/h 51% 0in /  0.0mm 849 W/m2
13:43 77 °F /  25 °C 59.5 °F /  15.3 °C 30.1in /  1019.3hPa Calm   4mph /  6.4km/h 55% 0in /  0.0mm 851 W/m2
13:48 77.2 °F /  25.1 °C 58.6 °F /  14.8 °C 30.1in /  1019.0hPa NNW 0.9mph /  1.4km/h 9mph /  14.5km/h 53% 0in /  0.0mm 854 W/m2
13:53 77.4 °F /  25.2 °C 58.3 °F /  14.6 °C 30.1in /  1019.0hPa West 2mph /  3.2km/h 4mph /  6.4km/h 52% 0in /  0.0mm 870 W/m2
13:58 77.7 °F /  25.4 °C 57.6 °F /  14.2 °C 30.1in /  1019.0hPa ENE 4mph /  6.4km/h 5mph /  8km/h 50% 0in /  0.0mm 898 W/m2
14:03 77.7 °F /  25.4 °C 58.6 °F /  14.8 °C 30.1in /  1019.0hPa East 2.9mph /  4.7km/h 4mph /  6.4km/h 52% 0in /  0.0mm 867 W/m2
14:08 77.9 °F /  25.5 °C 57.2 °F /  14 °C 30.1in /  1019.0hPa East 0.9mph /  1.4km/h 3mph /  4.8km/h 49% 0in /  0.0mm 851 W/m2
14:13 78.1 °F /  25.6 °C 55.6 °F /  13.1 °C 30.1in /  1019.0hPa WNW 0.9mph /  1.4km/h 3mph /  4.8km/h 46% 0in /  0.0mm 865 W/m2
14:18 78.4 °F /  25.8 °C 57.7 °F /  14.3 °C 30.1in /  1019.0hPa ESE 2.9mph /  4.7km/h 9mph /  14.5km/h 49% 0in /  0.0mm 889 W/m2
14:23 79 °F /  26.1 °C 57.6 °F /  14.2 °C 30.1in /  1019.0hPa East 2mph /  3.2km/h 7mph /  11.3km/h 48% 0in /  0.0mm 889 W/m2
14:28 79.2 °F /  26.2 °C 56.7 °F /  13.7 °C 30.1in /  1019.0hPa East 2mph /  3.2km/h 9mph /  14.5km/h 46% 0in /  0.0mm 896 W/m2
14:33 79 °F /  26.1 °C 55.2 °F /  12.9 °C 30.1in /  1018.6hPa SW 0.9mph /  1.4km/h 4mph /  6.4km/h 44% 0in /  0.0mm 886 W/m2
14:38 79 °F /  26.1 °C 55.8 °F /  13.2 °C 30.1in /  1018.6hPa NNW 4mph /  6.4km/h 4mph /  6.4km/h 45% 0in /  0.0mm 884 W/m2
14:43 78.6 °F /  25.9 °C 56.1 °F /  13.4 °C 30.1in /  1018.6hPa WSW 0.9mph /  1.4km/h 4mph /  6.4km/h 46% 0in /  0.0mm 879 W/m2
14:48 79 °F /  26.1 °C 58.1 °F /  14.5 °C 30.1in /  1018.6hPa East 0.9mph /  1.4km/h 4mph /  6.4km/h 49% 0in /  0.0mm 874 W/m2
14:53 79 °F /  26.1 °C 57.6 °F /  14.2 °C 30.1in /  1018.3hPa Calm   1mph /  1.6km/h 48% 0in /  0.0mm 916 W/m2
14:58 79.3 °F /  26.3 °C 57.9 °F /  14.4 °C 30.1in /  1018.3hPa SSE 2.9mph /  4.7km/h 4mph /  6.4km/h 48% 0in /  0.0mm 933 W/m2
15:03 79.5 °F /  26.4 °C 57.6 °F /  14.2 °C 30.1in /  1018.3hPa ESE 2.9mph /  4.7km/h 5mph /  8km/h 47% 0in /  0.0mm 930 W/m2
15:08 79.9 °F /  26.6 °C 57.9 °F /  14.4 °C 30.1in /  1018.3hPa ESE 4mph /  6.4km/h 4mph /  6.4km/h 47% 0in /  0.0mm 459 W/m2
15:13 79.5 °F /  26.4 °C 57.6 °F /  14.2 °C 30.1in /  1018.3hPa East 2mph /  3.2km/h 4mph /  6.4km/h 47% 0in /  0.0mm 229 W/m2
15:18 79.2 °F /  26.2 °C 55.9 °F /  13.3 °C 30.1in /  1018.3hPa SE 0.9mph /  1.4km/h 2mph /  3.2km/h 45% 0in /  0.0mm 916 W/m2
15:23 79 °F /  26.1 °C 55.8 °F /  13.2 °C 30.1in /  1018.3hPa East 4mph /  6.4km/h 4mph /  6.4km/h 45% 0in /  0.0mm 299 W/m2
15:28 78.8 °F /  26 °C 56.3 °F /  13.5 °C 30.1in /  1018.3hPa Calm   3mph /  4.8km/h 46% 0in /  0.0mm 206 W/m2
15:34 79 °F /  26.1 °C 56.5 °F /  13.6 °C 30.1in /  1018.3hPa WNW 0.9mph /  1.4km/h 2mph /  3.2km/h 46% 0in /  0.0mm 868 W/m2
15:39 79.3 °F /  26.3 °C 56.1 °F /  13.4 °C 30.1in /  1018.3hPa SW 2mph /  3.2km/h 3mph /  4.8km/h 45% 0in /  0.0mm 835 W/m2
15:44 79.9 °F /  26.6 °C 57.2 °F /  14 °C 30.1in /  1018.3hPa Calm   4mph /  6.4km/h 46% 0in /  0.0mm 844 W/m2
15:49 80.4 °F /  26.9 °C 57.7 °F /  14.3 °C 30.1in /  1018.3hPa ESE 2mph /  3.2km/h 4mph /  6.4km/h 46% 0in /  0.0mm 872 W/m2
15:54 81 °F /  27.2 °C 57.6 °F /  14.2 °C 30.1in /  1018.0hPa NNW 2.9mph /  4.7km/h 8mph /  12.9km/h 45% 0in /  0.0mm 865 W/m2
15:59 81 °F /  27.2 °C 57 °F /  13.9 °C 30.1in /  1018.0hPa ESE 2mph /  3.2km/h 12mph /  19.3km/h 44% 0in /  0.0mm 842 W/m2
16:09 80.8 °F /  27.1 °C 56.8 °F /  13.8 °C 30.1in /  1018.0hPa SE 0.9mph /  1.4km/h 12mph /  19.3km/h 44% 0in /  0.0mm 149 W/m2
16:14 80.6 °F /  27 °C 56.1 °F /  13.4 °C 30.1in /  1018.0hPa South 0.9mph /  1.4km/h 4mph /  6.4km/h 43% 0in /  0.0mm 793 W/m2
16:19 81 °F /  27.2 °C 55.8 °F /  13.2 °C 30.1in /  1018.0hPa ESE 0.9mph /  1.4km/h 3mph /  4.8km/h 42% 0in /  0.0mm 789 W/m2
16:24 81 °F /  27.2 °C 57 °F /  13.9 °C 30.1in /  1018.0hPa SE 2mph /  3.2km/h 3mph /  4.8km/h 44% 0in /  0.0mm 763 W/m2
16:29 81.1 °F /  27.3 °C 56.5 °F /  13.6 °C 30.1in /  1018.0hPa SE 2mph /  3.2km/h 6mph /  9.7km/h 43% 0in /  0.0mm 174 W/m2
16:34 80.8 °F /  27.1 °C 56.8 °F /  13.8 °C 30.1in /  1018.0hPa East 0.9mph /  1.4km/h 3mph /  4.8km/h 44% 0in /  0.0mm 364 W/m2
16:39 80.6 °F /  27 °C 58.5 °F /  14.7 °C 30.1in /  1018.0hPa ENE 2mph /  3.2km/h 2mph /  3.2km/h 47% 0in /  0.0mm 726 W/m2
16:44 80.8 °F /  27.1 °C 56.8 °F /  13.8 °C 30.1in /  1018.0hPa NE 2.9mph /  4.7km/h 6mph /  9.7km/h 44% 0in /  0.0mm 715 W/m2
16:49 81 °F /  27.2 °C 56.3 °F /  13.5 °C 30.1in /  1017.6hPa Calm   4mph /  6.4km/h 43% 0in /  0.0mm 707 W/m2
16:54 81 °F /  27.2 °C 58.3 °F /  14.6 °C 30.1in /  1017.6hPa Calm   2mph /  3.2km/h 46% 0in /  0.0mm 673 W/m2
16:59 81 °F /  27.2 °C 56.3 °F /  13.5 °C 30.1in /  1017.6hPa ESE 2mph /  3.2km/h 6mph /  9.7km/h 43% 0in /  0.0mm 689 W/m2
17:04 80.6 °F /  27 °C 56.7 °F /  13.7 °C 30.1in /  1017.6hPa East 0.9mph /  1.4km/h 1mph /  1.6km/h 44% 0in /  0.0mm 125 W/m2
17:09 80.1 °F /  26.7 °C 56.8 °F /  13.8 °C 30.1in /  1017.6hPa SE 2.9mph /  4.7km/h 6mph /  9.7km/h 45% 0in /  0.0mm 190 W/m2
17:14 80.2 °F /  26.8 °C 57.6 °F /  14.2 °C 30.1in /  1017.6hPa SSE 2mph /  3.2km/h 2mph /  3.2km/h 46% 0in /  0.0mm 628 W/m2
17:19 80.4 °F /  26.9 °C 55.9 °F /  13.3 °C 30in /  1017.3hPa ESE 0.9mph /  1.4km/h 4mph /  6.4km/h 43% 0in /  0.0mm 230 W/m2
17:24 80.2 °F /  26.8 °C 57 °F /  13.9 °C 30in /  1017.3hPa Calm   1mph /  1.6km/h 45% 0in /  0.0mm 612 W/m2
17:29 80.6 °F /  27 °C 55.4 °F /  13 °C 30in /  1017.3hPa South 2mph /  3.2km/h 2mph /  3.2km/h 42% 0in /  0.0mm 605 W/m2
17:34 81.1 °F /  27.3 °C 56.5 °F /  13.6 °C 30in /  1017.3hPa ENE 4mph /  6.4km/h 4mph /  6.4km/h 43% 0in /  0.0mm 543 W/m2
17:39 80.8 °F /  27.1 °C 57.4 °F /  14.1 °C 30.1in /  1017.6hPa East 2mph /  3.2km/h 3mph /  4.8km/h 45% 0in /  0.0mm 301 W/m2
17:44 80.6 °F /  27 °C 57.9 °F /  14.4 °C 30.1in /  1017.6hPa Calm   1mph /  1.6km/h 46% 0in /  0.0mm 148 W/m2
17:49 80.4 °F /  26.9 °C 59 °F /  15 °C 30in /  1017.3hPa ENE 0.9mph /  1.4km/h 2mph /  3.2km/h 48% 0in /  0.0mm 137 W/m2
17:54 80.1 °F /  26.7 °C 58.1 °F /  14.5 °C 30in /  1017.3hPa ENE 0.9mph /  1.4km/h 1mph /  1.6km/h 47% 0in /  0.0mm 158 W/m2
17:59 79.7 °F /  26.5 °C 58.8 °F /  14.9 °C 30in /  1017.3hPa Calm   1mph /  1.6km/h 49% 0in /  0.0mm 160 W/m2
18:04 79.3 °F /  26.3 °C 59 °F /  15 °C 30in /  1017.3hPa West 0.9mph /  1.4km/h 3mph /  4.8km/h 50% 0in /  0.0mm 171 W/m2
18:09 79.3 °F /  26.3 °C 57.4 °F /  14.1 °C 30in /  1017.3hPa WSW 0.9mph /  1.4km/h 2mph /  3.2km/h 47% 0in /  0.0mm 371 W/m2
18:14 79.7 °F /  26.5 °C 57.7 °F /  14.3 °C 30in /  1017.3hPa Calm   3mph /  4.8km/h 47% 0in /  0.0mm 524 W/m2
18:19 80.4 °F /  26.9 °C 59 °F /  15 °C 30in /  1017.3hPa Calm   2mph /  3.2km/h 48% 0in /  0.0mm 499 W/m2
18:24 80.8 °F /  27.1 °C 56.8 °F /  13.8 °C 30in /  1017.3hPa ESE 0.9mph /  1.4km/h 4mph /  6.4km/h 44% 0in /  0.0mm 308 W/m2
18:29 80.8 °F /  27.1 °C 56.8 °F /  13.8 °C 30in /  1017.3hPa ESE 0.9mph /  1.4km/h 3mph /  4.8km/h 44% 0in /  0.0mm 327 W/m2
18:34 80.4 °F /  26.9 °C 57.2 °F /  14 °C 30in /  1017.3hPa SE 0.9mph /  1.4km/h 4mph /  6.4km/h 45% 0in /  0.0mm 125 W/m2
18:39 80.4 °F /  26.9 °C 57.7 °F /  14.3 °C 30in /  1017.3hPa SE 0.9mph /  1.4km/h 1mph /  1.6km/h 46% 0in /  0.0mm 216 W/m2
18:44 80.4 °F /  26.9 °C 59 °F /  15 °C 30in /  1017.3hPa SE 0.9mph /  1.4km/h 1mph /  1.6km/h 48% 0in /  0.0mm 137 W/m2
18:49 81 °F /  27.2 °C 57.6 °F /  14.2 °C 30in /  1017.3hPa Calm   3mph /  4.8km/h 45% 0in /  0.0mm 118 W/m2
18:54 81.1 °F /  27.3 °C 57.2 °F /  14 °C 30in /  1017.3hPa ESE 2.9mph /  4.7km/h 3mph /  4.8km/h 44% 0in /  0.0mm 118 W/m2
18:59 81.3 °F /  27.4 °C 57.9 °F /  14.4 °C 30in /  1017.3hPa Calm   1mph /  1.6km/h 45% 0in /  0.0mm 113 W/m2
19:04 81.5 °F /  27.5 °C 58.1 °F /  14.5 °C 30in /  1017.3hPa Calm     45% 0in /  0.0mm 98 W/m2
19:09 81.7 °F /  27.6 °C 58.8 °F /  14.9 °C 30in /  1017.3hPa East 2mph /  3.2km/h 3mph /  4.8km/h 46% 0in /  0.0mm 105 W/m2
19:14 81.1 °F /  27.3 °C 57.7 °F /  14.3 °C 30in /  1017.3hPa East 0.9mph /  1.4km/h 3mph /  4.8km/h 45% 0in /  0.0mm 95 W/m2
19:19 81.1 °F /  27.3 °C 57.7 °F /  14.3 °C 30in /  1017.3hPa Calm   2mph /  3.2km/h 45% 0in /  0.0mm 88 W/m2
19:24 81.1 °F /  27.3 °C 58.5 °F /  14.7 °C 30in /  1017.3hPa East 0.9mph /  1.4km/h 2mph /  3.2km/h 46% 0in /  0.0mm 86 W/m2
19:29 81.1 °F /  27.3 °C 57.7 °F /  14.3 °C 30in /  1017.3hPa Calm   1mph /  1.6km/h 45% 0in /  0.0mm 72 W/m2
19:34 81.1 °F /  27.3 °C 57.7 °F /  14.3 °C 30in /  1017.3hPa Calm   2mph /  3.2km/h 45% 0in /  0.0mm 72 W/m2
19:39 81.1 °F /  27.3 °C 60.1 °F /  15.6 °C 30in /  1017.3hPa Calm     49% 0in /  0.0mm 62 W/m2
19:44 81 °F /  27.2 °C 60.6 °F /  15.9 °C 30in /  1017.3hPa SE 0.9mph /  1.4km/h 1mph /  1.6km/h 50% 0in /  0.0mm 54 W/m2
19:49 80.8 °F /  27.1 °C 61.5 °F /  16.4 °C 30in /  1017.3hPa Calm   1mph /  1.6km/h 52% 0in /  0.0mm 49 W/m2
19:54 80.4 °F /  26.9 °C 61.2 °F /  16.2 °C 30in /  1017.3hPa SE 0.9mph /  1.4km/h 1mph /  1.6km/h 52% 0in /  0.0mm 46 W/m2
19:59 79.9 °F /  26.6 °C 60.6 °F /  15.9 °C 30in /  1017.3hPa SE 0.9mph /  1.4km/h 1mph /  1.6km/h 52% 0in /  0.0mm 46 W/m2
20:04 79.3 °F /  26.3 °C 60.8 °F /  16 °C 30in /  1017.3hPa SE 2mph /  3.2km/h 2mph /  3.2km/h 53% 0in /  0.0mm 44 W/m2
20:09 79 °F /  26.1 °C 60.4 °F /  15.8 °C 30in /  1017.3hPa SE 0.9mph /  1.4km/h 2mph /  3.2km/h 53% 0in /  0.0mm 37 W/m2
20:14 78.4 °F /  25.8 °C 60.4 °F /  15.8 °C 30.1in /  1017.6hPa SE 0.9mph /  1.4km/h 2mph /  3.2km/h 54% 0in /  0.0mm 35 W/m2
20:19 77.7 °F /  25.4 °C 60.3 °F /  15.7 °C 30.1in /  1017.6hPa Calm   2mph /  3.2km/h 55% 0in /  0.0mm 32 W/m2
20:24 77.2 °F /  25.1 °C 60.3 °F /  15.7 °C 30.1in /  1017.6hPa Calm   2mph /  3.2km/h 56% 0in /  0.0mm 28 W/m2
20:29 76.6 °F /  24.8 °C 59.7 °F /  15.4 °C 30.1in /  1017.6hPa Calm   1mph /  1.6km/h 56% 0in /  0.0mm 26 W/m2
20:34 75.9 °F /  24.4 °C 59.5 °F /  15.3 °C 30in /  1017.3hPa SE 0.9mph /  1.4km/h 2mph /  3.2km/h 57% 0in /  0.0mm 23 W/m2
20:39 75.6 °F /  24.2 °C 59.2 °F /  15.1 °C 30in /  1017.3hPa SE 0.9mph /  1.4km/h 1mph /  1.6km/h 57% 0in /  0.0mm 21 W/m2
20:44 75 °F /  23.9 °C 59.2 °F /  15.1 °C 30in /  1017.3hPa SE 0.9mph /  1.4km/h 1mph /  1.6km/h 58% 0in /  0.0mm 18 W/m2
20:49 74.7 °F /  23.7 °C 58.8 °F /  14.9 °C 30in /  1017.3hPa SE 0.9mph /  1.4km/h 2mph /  3.2km/h 58% 0in /  0.0mm 16 W/m2
20:54 74.1 °F /  23.4 °C 58.8 °F /  14.9 °C 30in /  1017.3hPa Calm   1mph /  1.6km/h 59% 0in /  0.0mm 12 W/m2
20:59 73.8 °F /  23.2 °C 59 °F /  15 °C 30in /  1017.3hPa SE 0.9mph /  1.4km/h 2mph /  3.2km/h 60% 0in /  0.0mm 9 W/m2
21:04 73 °F /  22.8 °C 58.3 °F /  14.6 °C 30in /  1017.3hPa Calm   1mph /  1.6km/h 60% 0in /  0.0mm 7 W/m2
21:09 72.3 °F /  22.4 °C 58.1 °F /  14.5 °C 30.1in /  1017.6hPa SE 0.9mph /  1.4km/h 1mph /  1.6km/h 61% 0in /  0.0mm 5 W/m2
21:14 71.6 °F /  22 °C 57.9 °F /  14.4 °C 30.1in /  1017.6hPa SE 0.9mph /  1.4km/h 2mph /  3.2km/h 62% 0in /  0.0mm 0 W/m2
21:20 71.1 °F /  21.7 °C 57.7 °F /  14.3 °C 30.1in /  1017.6hPa SE 0.9mph /  1.4km/h 2mph /  3.2km/h 63% 0in /  0.0mm 0 W/m2
21:25 70.5 °F /  21.4 °C 57.7 °F /  14.3 °C 30.1in /  1017.6hPa SE 0.9mph /  1.4km/h 1mph /  1.6km/h 64% 0in /  0.0mm 0 W/m2
21:30 70.2 °F /  21.2 °C 57.4 °F /  14.1 °C 30.1in /  1017.6hPa Calm     64% 0in /  0.0mm 0 W/m2
21:35 69.8 °F /  21 °C 57.6 °F /  14.2 °C 30.1in /  1017.6hPa SE 0.9mph /  1.4km/h 1mph /  1.6km/h 65% 0in /  0.0mm 0 W/m2
21:40 69.4 °F /  20.8 °C 57.2 °F /  14 °C 30.1in /  1017.6hPa Calm     65% 0in /  0.0mm 0 W/m2
21:45 69.1 °F /  20.6 °C 57.2 °F /  14 °C 30.1in /  1018.0hPa Calm   1mph /  1.6km/h 66% 0in /  0.0mm 0 W/m2
21:50 68.7 °F /  20.4 °C 57.4 °F /  14.1 °C 30.1in /  1018.0hPa Calm     67% 0in /  0.0mm 0 W/m2
21:55 68.4 °F /  20.2 °C 57 °F /  13.9 °C 30.1in /  1018.0hPa Calm   2mph /  3.2km/h 67% 0in /  0.0mm 0 W/m2
22:00 67.8 °F /  19.9 °C 56.8 °F /  13.8 °C 30.1in /  1017.6hPa Calm   2mph /  3.2km/h 68% 0in /  0.0mm 0 W/m2
22:05 67.6 °F /  19.8 °C 56.7 °F /  13.7 °C 30.1in /  1017.6hPa Calm     68% 0in /  0.0mm 0 W/m2
22:10 67.3 °F /  19.6 °C 56.8 °F /  13.8 °C 30.1in /  1018.0hPa Calm   2mph /  3.2km/h 69% 0in /  0.0mm 0 W/m2
22:15 66.9 °F /  19.4 °C 56.5 °F /  13.6 °C 30.1in /  1018.0hPa Calm     69% 0in /  0.0mm 0 W/m2
22:20 66.7 °F /  19.3 °C 56.7 °F /  13.7 °C 30.1in /  1018.0hPa Calm     70% 0in /  0.0mm 0 W/m2
22:25 66.6 °F /  19.2 °C 56.8 °F /  13.8 °C 30.1in /  1018.0hPa Calm     71% 0in /  0.0mm 0 W/m2
22:30 66.2 °F /  19 °C 56.5 °F /  13.6 °C 30.1in /  1018.0hPa Calm     71% 0in /  0.0mm 0 W/m2
22:35 66 °F /  18.9 °C 56.3 °F /  13.5 °C 30.1in /  1018.0hPa Calm     71% 0in /  0.0mm 0 W/m2
22:40 65.7 °F /  18.7 °C 56.3 °F /  13.5 °C 30.1in /  1018.0hPa Calm     72% 0in /  0.0mm 0 W/m2
22:45 65.5 °F /  18.6 °C 56.3 °F /  13.5 °C 30.1in /  1018.0hPa Calm     72% 0in /  0.0mm 0 W/m2
22:50 65.5 °F /  18.6 °C 56.3 °F /  13.5 °C 30.1in /  1018.0hPa Calm   1mph /  1.6km/h 72% 0in /  0.0mm 0 W/m2
22:55 65.3 °F /  18.5 °C 56.5 °F /  13.6 °C 30.1in /  1018.0hPa Calm     73% 0in /  0.0mm 0 W/m2
23:00 65.1 °F /  18.4 °C 56.3 °F /  13.5 °C 30.1in /  1018.0hPa Calm     73% 0in /  0.0mm 0 W/m2
23:05 64.9 °F /  18.3 °C 56.1 °F /  13.4 °C 30.1in /  1018.0hPa Calm     73% 0in /  0.0mm 0 W/m2
23:10 64.8 °F /  18.2 °C 55.9 °F /  13.3 °C 30.1in /  1018.0hPa Calm     73% 0in /  0.0mm 0 W/m2
23:15 64.6 °F /  18.1 °C 55.8 °F /  13.2 °C 30.1in /  1018.0hPa Calm     73% 0in /  0.0mm 0 W/m2
23:20 64.4 °F /  18 °C 55.9 °F /  13.3 °C 30.1in /  1018.3hPa Calm     74% 0in /  0.0mm 0 W/m2
23:25 64.2 °F /  17.9 °C 55.8 °F /  13.2 °C 30.1in /  1018.0hPa Calm     74% 0in /  0.0mm 0 W/m2
23:30 64 °F /  17.8 °C 55.6 °F /  13.1 °C 30.1in /  1018.3hPa Calm     74% 0in /  0.0mm 0 W/m2
23:35 63.9 °F /  17.7 °C 55.8 °F /  13.2 °C 30.1in /  1018.3hPa Calm     75% 0in /  0.0mm 0 W/m2
23:40 63.7 °F /  17.6 °C 55.9 °F /  13.3 °C 30.1in /  1018.0hPa Calm   1mph /  1.6km/h 76% 0in /  0.0mm 0 W/m2
23:45 63.7 °F /  17.6 °C 55.9 °F /  13.3 °C 30.1in /  1018.3hPa Calm   1mph /  1.6km/h 76% 0in /  0.0mm 0 W/m2
23:50 63.3 °F /  17.4 °C 55.6 °F /  13.1 °C 30.1in /  1018.0hPa Calm     76% 0in /  0.0mm 0 W/m2
23:55 63.1 °F /  17.3 °C 55.4 °F /  13 °C 30.1in /  1018.3hPa Calm   1mph /  1.6km/h 76% 0in /  0.0mm 0 W/m2
Juneau County Weather
Compliments of Weather Underground - 4 mb